Time;durP1;ratioP1;P1;durP2;ratioP2;P2;SDS_P1;SDS_P2;PMS_P1;PMS_P2;Temp;Humidity;BMP_temperature;BMP_pressure;BME280_temperature;BME280_humidity;BME280_pressure;Samples;Min_cycle;Max_cycle;Signal;HPM_P1;HPM_P2
2022/12/16 00:00:42;;;;;;;42.90;28.00;;;;;;;;;;5054145;28;20021;-71
2022/12/16 00:03:07;;;;;;;44.78;28.38;;;;;;;;;;5045042;28;20056;-71
2022/12/16 00:05:32;;;;;;;45.45;28.17;;;;;;;;;;5054634;28;20028;-71
2022/12/16 00:07:57;;;;;;;45.53;28.52;;;;;;;;;;5054028;28;20028;-71
2022/12/16 00:10:23;;;;;;;43.10;28.05;;;;;;;;;;5053697;28;20021;-70
2022/12/16 00:12:48;;;;;;;44.75;27.95;;;;;;;;;;5054496;28;20021;-70
2022/12/16 00:15:13;;;;;;;48.95;29.23;;;;;;;;;;5052822;28;20021;-70
2022/12/16 00:17:39;;;;;;;48.63;29.17;;;;;;;;;;5042105;28;20097;-70
2022/12/16 00:20:04;;;;;;;51.95;27.40;;;;;;;;;;5053730;28;20052;-70
2022/12/16 00:22:29;;;;;;;44.22;25.75;;;;;;;;;;5054136;28;20379;-70
2022/12/16 00:24:55;;;;;;;47.55;27.58;;;;;;;;;;5054617;28;20025;-70
2022/12/16 00:27:20;;;;;;;43.80;28.75;;;;;;;;;;5051871;28;20056;-70
2022/12/16 00:29:45;;;;;;;43.20;26.58;;;;;;;;;;5052793;28;20651;-70
2022/12/16 00:32:10;;;;;;;45.78;30.67;;;;;;;;;;5054107;28;20424;-71
2022/12/16 00:34:36;;;;;;;45.53;27.63;;;;;;;;;;5054456;28;20025;-70
2022/12/16 00:37:01;;;;;;;42.63;28.83;;;;;;;;;;5053731;28;20021;-70
2022/12/16 00:39:26;;;;;;;48.28;29.75;;;;;;;;;;5054486;28;20021;-70
2022/12/16 00:41:51;;;;;;;40.78;28.17;;;;;;;;;;5054335;28;20021;-70
2022/12/16 00:44:16;;;;;;;41.80;28.95;;;;;;;;;;5053685;28;20016;-70
2022/12/16 00:46:42;;;;;;;41.83;28.02;;;;;;;;;;5042128;28;20017;-71
2022/12/16 00:49:07;;;;;;;41.38;27.67;;;;;;;;;;5053891;28;20033;-70
2022/12/16 00:51:33;;;;;;;43.00;28.83;;;;;;;;;;5053813;28;20075;-70
2022/12/16 00:53:58;;;;;;;52.15;29.20;;;;;;;;;;5053879;28;20044;-71
2022/12/16 00:56:24;;;;;;;44.90;29.58;;;;;;;;;;5053859;28;20508;-71
2022/12/16 00:58:49;;;;;;;47.53;30.05;;;;;;;;;;5053376;28;20013;-71
2022/12/16 01:01:14;;;;;;;47.22;30.88;;;;;;;;;;5053405;28;20048;-71
2022/12/16 01:03:40;;;;;;;48.42;30.33;;;;;;;;;;5035080;28;20844;-70
2022/12/16 01:06:09;;;;;;;48.88;33.30;;;;;;;;;;5036740;28;20378;-71
2022/12/16 01:08:34;;;;;;;49.08;31.95;;;;;;;;;;5051095;28;20375;-73
2022/12/16 01:11:00;;;;;;;45.40;29.70;;;;;;;;;;5047478;28;20043;-72
2022/12/16 01:13:25;;;;;;;43.47;29.30;;;;;;;;;;5035067;28;20044;-72
2022/12/16 01:15:50;;;;;;;50.30;30.13;;;;;;;;;;5052663;28;20017;-71
2022/12/16 01:18:16;;;;;;;51.83;28.65;;;;;;;;;;5053610;28;20017;-71
2022/12/16 01:20:41;;;;;;;43.45;29.58;;;;;;;;;;5052877;28;20032;-72
2022/12/16 01:23:07;;;;;;;43.28;28.80;;;;;;;;;;5049728;28;20021;-72
2022/12/16 01:25:32;;;;;;;44.03;28.92;;;;;;;;;;5038680;28;20023;-72
2022/12/16 01:27:57;;;;;;;45.25;30.60;;;;;;;;;;5028387;28;20025;-72
2022/12/16 01:30:23;;;;;;;42.85;26.98;;;;;;;;;;5027998;28;20017;-71
2022/12/16 01:32:48;;;;;;;49.03;31.15;;;;;;;;;;5028729;28;20096;-71
2022/12/16 01:35:13;;;;;;;47.83;30.30;;;;;;;;;;5015717;28;20017;-71
2022/12/16 01:37:39;;;;;;;44.83;29.02;;;;;;;;;;5039235;28;20025;-71
2022/12/16 01:40:05;;;;;;;47.05;31.30;;;;;;;;;;5051262;28;20017;-71
2022/12/16 01:42:32;;;;;;;48.25;29.73;;;;;;;;;;5052397;28;20056;-71
2022/12/16 01:45:17;;;;;;;45.08;30.80;;;;;;;;;;5050391;28;20017;-72
2022/12/16 01:47:42;;;;;;;46.50;29.20;;;;;;;;;;5048795;28;20043;-72
2022/12/16 01:50:12;;;;;;;50.72;31.55;;;;;;;;;;5050395;28;20092;-72
2022/12/16 01:52:41;;;;;;;42.83;29.90;;;;;;;;;;5050481;28;20032;-72
2022/12/16 01:55:06;;;;;;;49.33;31.30;;;;;;;;;;5044258;28;20019;-72
2022/12/16 01:57:39;;;;;;;52.05;30.00;;;;;;;;;;5050864;28;20108;-71
2022/12/16 02:00:05;;;;;;;45.30;30.10;;;;;;;;;;5037131;28;20056;-72
2022/12/16 02:02:31;;;;;;;47.40;29.55;;;;;;;;;;5025450;28;20182;-72
2022/12/16 02:07:40;;;;;;;48.22;28.63;;;;;;;;;;5043679;28;20039;-71
2022/12/16 02:10:06;;;;;;;47.03;29.60;;;;;;;;;;5049012;28;20025;-70
2022/12/16 02:12:39;;;;;;;45.65;30.38;;;;;;;;;;5050718;28;20048;-71
2022/12/16 02:15:22;;;;;;;55.65;33.00;;;;;;;;;;5028487;28;20017;-73
2022/12/16 02:17:57;;;;;;;45.25;30.65;;;;;;;;;;5031912;28;20416;-73
2022/12/16 02:20:22;;;;;;;49.40;31.05;;;;;;;;;;5036968;28;20032;-73
2022/12/16 02:22:56;;;;;;;46.70;32.28;;;;;;;;;;5022798;28;20039;-73
2022/12/16 02:25:25;;;;;;;53.88;32.38;;;;;;;;;;5046802;28;20017;-72
2022/12/16 02:27:52;;;;;;;48.05;31.25;;;;;;;;;;5047236;28;20107;-72
2022/12/16 02:30:26;;;;;;;51.47;32.97;;;;;;;;;;5048989;28;20090;-72
2022/12/16 02:33:09;;;;;;;51.58;32.67;;;;;;;;;;5048305;28;20124;-72
2022/12/16 02:35:35;;;;;;;53.87;32.80;;;;;;;;;;5025993;28;20024;-72
2022/12/16 02:38:03;;;;;;;53.08;32.53;;;;;;;;;;5040786;28;20875;-73
2022/12/16 02:40:42;;;;;;;55.22;33.42;;;;;;;;;;5045230;28;20017;-72
2022/12/16 02:43:34;;;;;;;50.33;32.42;;;;;;;;;;5050310;28;20056;-72
2022/12/16 02:45:59;;;;;;;52.47;33.83;;;;;;;;;;5021211;28;20060;-73
2022/12/16 02:48:25;;;;;;;53.92;33.97;;;;;;;;;;5034523;28;20127;-73
2022/12/16 02:50:50;;;;;;;52.88;33.47;;;;;;;;;;5045708;28;20652;-72
2022/12/16 02:53:16;;;;;;;51.50;31.90;;;;;;;;;;5045830;28;20044;-72
2022/12/16 02:55:52;;;;;;;48.50;31.27;;;;;;;;;;5045039;28;20139;-72
2022/12/16 02:58:20;;;;;;;43.78;31.65;;;;;;;;;;5024405;28;20807;-72
2022/12/16 03:00:52;;;;;;;52.65;33.08;;;;;;;;;;5036034;28;20032;-73
2022/12/16 03:03:24;;;;;;;48.85;32.75;;;;;;;;;;5046299;28;20102;-72
2022/12/16 03:05:51;;;;;;;48.90;32.25;;;;;;;;;;5042259;28;20020;-73
2022/12/16 03:08:19;;;;;;;51.42;32.47;;;;;;;;;;5042329;28;20051;-73
2022/12/16 03:10:59;;;;;;;50.97;31.13;;;;;;;;;;5047222;28;20058;-72
2022/12/16 03:13:26;;;;;;;50.72;32.25;;;;;;;;;;5042800;28;20021;-73
2022/12/16 03:15:52;;;;;;;51.65;32.80;;;;;;;;;;5038333;28;20095;-72
2022/12/16 03:18:18;;;;;;;50.95;33.45;;;;;;;;;;5048359;28;20088;-72
2022/12/16 03:20:56;;;;;;;49.88;33.13;;;;;;;;;;5047441;28;20024;-71
2022/12/16 03:23:27;;;;;;;50.53;32.45;;;;;;;;;;5050426;28;20471;-71
2022/12/16 03:25:55;;;;;;;53.25;33.25;;;;;;;;;;5031048;28;20017;-73
2022/12/16 03:28:39;;;;;;;51.30;32.58;;;;;;;;;;5042839;28;20095;-72
2022/12/16 03:31:08;;;;;;;57.22;34.38;;;;;;;;;;5041384;28;20463;-71
2022/12/16 03:33:53;;;;;;;50.67;33.45;;;;;;;;;;5051761;28;20467;-72
2022/12/16 03:36:21;;;;;;;47.08;31.80;;;;;;;;;;5053570;28;20127;-71
2022/12/16 03:38:47;;;;;;;51.30;34.60;;;;;;;;;;5049532;28;20091;-73
2022/12/16 03:41:13;;;;;;;56.97;38.38;;;;;;;;;;5048062;28;20941;-73
2022/12/16 03:43:38;;;;;;;54.30;35.05;;;;;;;;;;5051046;28;20021;-71
2022/12/16 03:46:05;;;;;;;52.92;34.17;;;;;;;;;;5051748;28;20033;-71
2022/12/16 03:48:31;;;;;;;56.00;37.20;;;;;;;;;;5049985;28;20041;-72
2022/12/16 03:50:57;;;;;;;52.00;37.78;;;;;;;;;;5046562;28;20021;-72
2022/12/16 03:53:25;;;;;;;63.40;41.15;;;;;;;;;;5037992;28;20539;-72
2022/12/16 03:55:50;;;;;;;59.45;39.90;;;;;;;;;;5037248;28;20032;-72
2022/12/16 03:58:15;;;;;;;62.55;37.60;;;;;;;;;;5027803;28;20020;-71
2022/12/16 04:00:41;;;;;;;53.72;36.28;;;;;;;;;;5048428;28;20061;-72
2022/12/16 04:03:06;;;;;;;59.60;36.03;;;;;;;;;;5018584;28;20905;-72
2022/12/16 04:05:31;;;;;;;52.78;36.80;;;;;;;;;;5043068;28;20063;-72
2022/12/16 04:07:57;;;;;;;50.55;35.13;;;;;;;;;;5028773;28;20839;-72
2022/12/16 04:24:18;;;;;;;59.08;35.22;;;;;;;;;;5022124;28;20013;-72
2022/12/16 04:24:18;;;;;;;59.97;36.65;;;;;;;;;;5049151;28;20083;-72
2022/12/16 04:34:24;;;;;;;56.17;34.97;;;;;;;;;;5029988;28;20510;-71
